Home   Weather   USA   New Tazewell   Past weeks
Flag for USA

Past Weather in New Tazewell, Tennessee, USA — Yesterday and Last 2 Weeks

Currently: 78 °F. Passing clouds. (Weather station: Bell County Airport, USA). See more current weather

Past Weather in New Tazewell — Graph

°F

New Tazewell Temperature Yesterday

Maximum temperature yesterday: 87 °F (at 3:15 pm)
Minimum temperature yesterday: 65 °F (at 6:35 am)
Average temperature yesterday: 75 °F

High & Low Weather Summary for the Past Weeks

 TemperatureHumidityPressure
High92 °F (Jun 16, 4:35 pm)100% (Jun 7, 3:15 am)30.38 "Hg (Jun 7, 3:15 am)
Low51 °F (Jun 8, 6:35 am)33% (Jun 7, 1:55 pm)29.73 "Hg (Jun 6, 3:55 am)
Average73 °F73%30.04 "Hg
* Reported Jun 5 8:15 pm — Jun 20 8:55 pm, New Tazewell. Weather by CustomWeather, © 2024

Note: Actual official high and low records may vary slightly from our data, if they occured in-between our weather recording intervals... More about our weather records

New Tazewell Weather History for the Previous 24 Hours

Scroll right to see more
 ConditionsComfort  
Time TempWeatherWind HumidityBarometerVisibility
8:55 pm
Thu, Jun 20
80 °FPartly sunny.5 mph66%30.27 "Hg10 mi
8:35 pm82 °FPartly sunny.No wind65%30.27 "Hg10 mi
8:15 pm83 °FScattered clouds.No wind62%30.27 "Hg10 mi
7:55 pm82 °FBroken clouds.3 mph66%30.27 "Hg10 mi
7:35 pm85 °FOvercast.5 mph57%30.26 "Hg10 mi
7:15 pm89 °FMostly cloudy.No wind46%30.26 "Hg10 mi
6:55 pm89 °FMostly cloudy.3 mph45%30.26 "Hg10 mi
6:35 pm89 °FPartly sunny.No wind45%30.26 "Hg10 mi
6:15 pm89 °FPartly sunny.No wind45%30.26 "Hg10 mi
5:35 pm90 °FPartly sunny.No wind44%30.27 "Hg10 mi
5:15 pm90 °FPartly sunny.No wind45%30.28 "Hg10 mi
4:55 pm89 °FSunny.No wind46%30.29 "Hg10 mi
4:35 pm88 °FScattered clouds.No wind48%30.29 "Hg10 mi
3:55 pm89 °FBroken clouds.No wind45%30.30 "Hg10 mi
3:35 pm88 °FPartly sunny.3 mph48%30.31 "Hg10 mi
2:55 pm88 °FScattered clouds.No wind47%30.32 "Hg10 mi
2:35 pm87 °FSunny.6 mph50%30.32 "Hg10 mi
2:15 pm87 °FScattered clouds.6 mph51%30.33 "Hg10 mi
1:55 pm85 °FScattered clouds.3 mph53%30.34 "Hg10 mi
1:35 pm86 °FScattered clouds.5 mph51%30.35 "Hg10 mi
1:15 pm86 °FScattered clouds.No wind52%30.35 "Hg10 mi
12:55 pm84 °FScattered clouds.No wind53%30.36 "Hg10 mi
12:35 pm86 °FSunny.No wind51%30.36 "Hg10 mi
12:15 pm84 °FSunny.No wind54%30.36 "Hg10 mi
11:55 am83 °FSunny.No wind54%30.37 "Hg10 mi
11:35 am82 °FSunny.No wind56%30.37 "Hg10 mi
10:55 am80 °FSunny.No wind62%30.38 "Hg10 mi
10:35 am78 °FSunny.No wind63%30.37 "Hg10 mi
9:35 am72 °FSunny.No wind80%30.38 "Hg10 mi
9:15 am70 °FSunny.No wind84%30.38 "Hg10 mi
8:55 am68 °FSunny.No wind89%30.38 "Hg10 mi
8:35 am66 °FPartly sunny.No wind93%30.37 "Hg10 mi
8:15 am64 °FFog.No wind100%30.37 "Hg5 mi
7:55 am63 °FFog.No wind100%30.37 "Hg1 mi
7:15 am62 °FFog.No wind100%30.37 "Hg1 mi
6:55 am62 °FFog.No wind100%30.37 "Hg0 mi
6:35 am62 °FFog.No wind100%30.37 "Hg1 mi
6:15 am62 °FFog.No wind100%30.37 "Hg4 mi
5:55 am62 °FFog.No wind100%30.36 "Hg1 mi
5:35 am63 °FPassing clouds.No wind100%30.36 "Hg7 mi
4:55 am63 °FClear.No wind100%30.35 "Hg7 mi
4:35 am63 °FClear.No wind98%30.35 "Hg10 mi
3:55 am64 °FClear.No wind98%30.34 "Hg10 mi
3:35 am64 °FClear.No wind98%30.33 "Hg10 mi
3:15 am64 °FClear.No wind98%30.33 "Hg7 mi
2:55 am65 °FClear.No wind98%30.33 "Hg10 mi
2:35 am65 °FClear.No wind96%30.32 "Hg10 mi
2:15 am65 °FClear.No wind97%30.32 "Hg10 mi
1:55 am66 °FClear.No wind96%30.32 "Hg10 mi
1:35 am66 °FClear.No wind95%30.33 "Hg10 mi
1:15 am67 °FClear.No wind94%30.33 "Hg10 mi
12:55 am68 °FClear.No wind91%30.32 "Hg10 mi
12:35 am68 °FClear.No wind90%30.32 "Hg10 mi
12:15 am68 °FClear.No wind90%30.32 "Hg10 mi
11:55 pm
Wed, Jun 19
69 °FClear.No wind90%30.32 "Hg10 mi
11:35 pm70 °FClear.No wind86%30.32 "Hg10 mi
10:55 pm71 °FClear.No wind83%30.31 "Hg10 mi
10:35 pm72 °FClear.No wind83%30.31 "Hg10 mi
Weather by CustomWeather, © 2024

See weather overview